sensor_id;sensor_type;location;lat;lon;timestamp;pressure;altitude;pressure_sealevel;temperature;humidity
44734;BME280;30462;52.446;-1.930;2023-03-21T00:00:19;99644.83203;;;;
44734;BME280;30462;52.446;-1.930;2023-03-21T00:01:18;99636.27344;;;;
44734;BME280;30462;52.446;-1.930;2023-03-21T00:02:18;99638.34375;;;;
44734;BME280;30462;52.446;-1.930;2023-03-21T00:03:18;99645.86719;;;;
44734;BME280;30462;52.446;-1.930;2023-03-21T00:04:18;99639.20703;;;;
44734;BME280;30462;52.446;-1.930;2023-03-21T00:05:18;99643.19141;;;;
44734;BME280;30462;52.446;-1.930;2023-03-21T00:06:17;99641.23047;;;;
44734;BME280;30462;52.446;-1.930;2023-03-21T00:07:17;99637.71875;;;;
44734;BME280;30462;52.446;-1.930;2023-03-21T00:08:18;99638.58984;;;;
44734;BME280;30462;52.446;-1.930;2023-03-21T00:09:18;99639.20703;;;;
44734;BME280;30462;52.446;-1.930;2023-03-21T00:10:18;99639.64063;;;;
44734;BME280;30462;52.446;-1.930;2023-03-21T00:11:18;99633.91406;;;;
44734;BME280;30462;52.446;-1.930;2023-03-21T00:12:18;99639.875;;;;
44734;BME280;30462;52.446;-1.930;2023-03-21T00:13:18;99634.51172;;;;
44734;BME280;30462;52.446;-1.930;2023-03-21T00:14:18;99641.35156;;;;
44734;BME280;30462;52.446;-1.930;2023-03-21T00:15:17;99637.92578;;;;
44734;BME280;30462;52.446;-1.930;2023-03-21T00:16:20;99636.81641;;;;
44734;BME280;30462;52.446;-1.930;2023-03-21T00:17:18;99632.98047;;;;
44734;BME280;30462;52.446;-1.930;2023-03-21T00:18:18;99633.92188;;;;
44734;BME280;30462;52.446;-1.930;2023-03-21T00:19:18;99635.57422;;;;
44734;BME280;30462;52.446;-1.930;2023-03-21T00:20:18;99629.41797;;;;
44734;BME280;30462;52.446;-1.930;2023-03-21T00:21:19;99625.67969;;;;
44734;BME280;30462;52.446;-1.930;2023-03-21T00:22:18;99625.88672;;;;
44734;BME280;30462;52.446;-1.930;2023-03-21T00:23:18;99622.48828;;;;
44734;BME280;30462;52.446;-1.930;2023-03-21T00:24:18;99626.62109;;;;
44734;BME280;30462;52.446;-1.930;2023-03-21T00:25:18;99621.45313;;;;
44734;BME280;30462;52.446;-1.930;2023-03-21T00:26:17;99620.01563;;;;
44734;BME280;30462;52.446;-1.930;2023-03-21T00:27:18;99616.82422;;;;
44734;BME280;30462;52.446;-1.930;2023-03-21T00:28:18;99611.88672;;;;
44734;BME280;30462;52.446;-1.930;2023-03-21T00:29:18;99613.28516;;;;
44734;BME280;30462;52.446;-1.930;2023-03-21T00:30:18;99607.91016;;;;
44734;BME280;30462;52.446;-1.930;2023-03-21T00:31:18;99600.21875;;;;
44734;BME280;30462;52.446;-1.930;2023-03-21T00:32:18;99614.82031;;;;
44734;BME280;30462;52.446;-1.930;2023-03-21T00:33:17;99612.61328;;;;
44734;BME280;30462;52.446;-1.930;2023-03-21T00:34:18;99607.49219;;;;
44734;BME280;30462;52.446;-1.930;2023-03-21T00:35:18;99616.53906;;;;
44734;BME280;30462;52.446;-1.930;2023-03-21T00:36:18;99616.11719;;;;
44734;BME280;30462;52.446;-1.930;2023-03-21T00:37:18;99614.76563;;;;
44734;BME280;30462;52.446;-1.930;2023-03-21T00:38:18;99612.09375;;;;
44734;BME280;30462;52.446;-1.930;2023-03-21T00:39:18;99606.13281;;;;
44734;BME280;30462;52.446;-1.930;2023-03-21T00:40:20;99608.37109;;;;
44734;BME280;30462;52.446;-1.930;2023-03-21T00:41:18;99602.96094;;;;
44734;BME280;30462;52.446;-1.930;2023-03-21T00:42:18;99599.28906;;;;
44734;BME280;30462;52.446;-1.930;2023-03-21T00:43:18;99601.62109;;;;
44734;BME280;30462;52.446;-1.930;2023-03-21T00:44:18;99593.40234;;;;
44734;BME280;30462;52.446;-1.930;2023-03-21T00:45:18;99598.16406;;;;
44734;BME280;30462;52.446;-1.930;2023-03-21T00:46:18;99592.46094;;;;
44734;BME280;30462;52.446;-1.930;2023-03-21T00:47:19;99589.11719;;;;
44734;BME280;30462;52.446;-1.930;2023-03-21T00:48:18;99587.20703;;;;
44734;BME280;30462;52.446;-1.930;2023-03-21T00:49:18;99584.21094;;;;
44734;BME280;30462;52.446;-1.930;2023-03-21T00:50:18;99588.77734;;;;
44734;BME280;30462;52.446;-1.930;2023-03-21T00:51:19;99580.17188;;;;
44734;BME280;30462;52.446;-1.930;2023-03-21T00:52:18;99580.04297;;;;
44734;BME280;30462;52.446;-1.930;2023-03-21T00:53:18;99577.52344;;;;
44734;BME280;30462;52.446;-1.930;2023-03-21T00:54:18;99570.17188;;;;
44734;BME280;30462;52.446;-1.930;2023-03-21T00:55:18;99566.29297;;;;
44734;BME280;30462;52.446;-1.930;2023-03-21T00:56:18;99564.80469;;;;
44734;BME280;30462;52.446;-1.930;2023-03-21T00:57:18;99564.32813;;;;
44734;BME280;30462;52.446;-1.930;2023-03-21T00:58:18;99554.96094;;;;
44734;BME280;30462;52.446;-1.930;2023-03-21T00:59:18;99561.65625;;;;
44734;BME280;30462;52.446;-1.930;2023-03-21T01:00:18;99562.66016;;;;
44734;BME280;30462;52.446;-1.930;2023-03-21T01:01:18;99564.22266;;;;
44734;BME280;30462;52.446;-1.930;2023-03-21T01:02:18;99567.71484;;;;
44734;BME280;30462;52.446;-1.930;2023-03-21T01:03:18;99561.12891;;;;
44734;BME280;30462;52.446;-1.930;2023-03-21T01:04:19;99556.45313;;;;
44734;BME280;30462;52.446;-1.930;2023-03-21T01:05:18;99549.25;;;;
44734;BME280;30462;52.446;-1.930;2023-03-21T01:06:18;99554.76563;;;;
44734;BME280;30462;52.446;-1.930;2023-03-21T01:07:18;99549.30859;;;;
44734;BME280;30462;52.446;-1.930;2023-03-21T01:08:19;99557.1875;;;;
44734;BME280;30462;52.446;-1.930;2023-03-21T01:09:21;99555.56641;;;;
44734;BME280;30462;52.446;-1.930;2023-03-21T01:10:18;99555.29297;;;;
44734;BME280;30462;52.446;-1.930;2023-03-21T01:11:19;99557.58984;;;;
44734;BME280;30462;52.446;-1.930;2023-03-21T01:12:18;99548.65234;;;;
44734;BME280;30462;52.446;-1.930;2023-03-21T01:13:19;99552.96094;;;;
44734;BME280;30462;52.446;-1.930;2023-03-21T01:14:19;99544.28906;;;;
44734;BME280;30462;52.446;-1.930;2023-03-21T01:15:18;99540.84766;;;;
44734;BME280;30462;52.446;-1.930;2023-03-21T01:16:18;99541.17578;;;;
44734;BME280;30462;52.446;-1.930;2023-03-21T01:17:18;99538.33984;;;;
44734;BME280;30462;52.446;-1.930;2023-03-21T01:18:19;99533.80469;;;;
44734;BME280;30462;52.446;-1.930;2023-03-21T01:19:18;99534.83984;;;;
44734;BME280;30462;52.446;-1.930;2023-03-21T01:20:18;99530.86328;;;;
44734;BME280;30462;52.446;-1.930;2023-03-21T01:21:18;99530.67578;;;;
44734;BME280;30462;52.446;-1.930;2023-03-21T01:22:18;99528;;;;
44734;BME280;30462;52.446;-1.930;2023-03-21T01:23:18;99529.89453;;;;
44734;BME280;30462;52.446;-1.930;2023-03-21T01:24:17;99523.83594;;;;
44734;BME280;30462;52.446;-1.930;2023-03-21T01:25:18;99524.27344;;;;
44734;BME280;30462;52.446;-1.930;2023-03-21T01:26:18;99522.45313;;;;
44734;BME280;30462;52.446;-1.930;2023-03-21T01:27:18;99521.59766;;;;
44734;BME280;30462;52.446;-1.930;2023-03-21T01:28:18;99525.91016;;;;
44734;BME280;30462;52.446;-1.930;2023-03-21T01:29:18;99525.65234;;;;
44734;BME280;30462;52.446;-1.930;2023-03-21T01:30:18;99520.42969;;;;
44734;BME280;30462;52.446;-1.930;2023-03-21T01:31:18;99520.75391;;;;
44734;BME280;30462;52.446;-1.930;2023-03-21T01:32:18;99520.35938;;;;
44734;BME280;30462;52.446;-1.930;2023-03-21T01:33:18;99522.92578;;;;
44734;BME280;30462;52.446;-1.930;2023-03-21T01:34:18;99521.21484;;;;
44734;BME280;30462;52.446;-1.930;2023-03-21T01:35:18;99519.19922;;;;
44734;BME280;30462;52.446;-1.930;2023-03-21T01:36:19;99522.58203;;;;
44734;BME280;30462;52.446;-1.930;2023-03-21T01:37:18;99516.90625;;;;
44734;BME280;30462;52.446;-1.930;2023-03-21T01:38:18;99517.87109;;;;
44734;BME280;30462;52.446;-1.930;2023-03-21T01:39:17;99514.01563;;;;
44734;BME280;30462;52.446;-1.930;2023-03-21T01:40:19;99513.41406;;;;
44734;BME280;30462;52.446;-1.930;2023-03-21T01:41:22;99511.28516;;;;
44734;BME280;30462;52.446;-1.930;2023-03-21T01:42:18;99515.57813;;;;
44734;BME280;30462;52.446;-1.930;2023-03-21T01:43:20;99507.84766;;;;
44734;BME280;30462;52.446;-1.930;2023-03-21T01:44:18;99506.89844;;;;
44734;BME280;30462;52.446;-1.930;2023-03-21T01:47:18;99506.48047;;;;
44734;BME280;30462;52.446;-1.930;2023-03-21T01:48:18;99501.67969;;;;
44734;BME280;30462;52.446;-1.930;2023-03-21T01:49:24;99502.42578;;;;
44734;BME280;30462;52.446;-1.930;2023-03-21T01:50:18;99501.37109;;;;
44734;BME280;30462;52.446;-1.930;2023-03-21T01:51:18;99501.73438;;;;
44734;BME280;30462;52.446;-1.930;2023-03-21T01:52:19;99504.22656;;;;
44734;BME280;30462;52.446;-1.930;2023-03-21T01:53:18;99505.91797;;;;
44734;BME280;30462;52.446;-1.930;2023-03-21T01:54:20;99503.625;;;;
44734;BME280;30462;52.446;-1.930;2023-03-21T01:55:18;99503.57422;;;;
44734;BME280;30462;52.446;-1.930;2023-03-21T01:56:19;99505.15625;;;;
44734;BME280;30462;52.446;-1.930;2023-03-21T01:57:20;99502.46094;;;;
44734;BME280;30462;52.446;-1.930;2023-03-21T01:58:17;99499.40234;;;;
44734;BME280;30462;52.446;-1.930;2023-03-21T01:59:19;99502.42578;;;;
44734;BME280;30462;52.446;-1.930;2023-03-21T02:00:18;99499.78906;;;;
44734;BME280;30462;52.446;-1.930;2023-03-21T02:01:18;99504.46484;;;;
44734;BME280;30462;52.446;-1.930;2023-03-21T02:02:20;99498.27734;;;;
44734;BME280;30462;52.446;-1.930;2023-03-21T02:03:18;99499.09375;;;;
44734;BME280;30462;52.446;-1.930;2023-03-21T02:04:18;99494.45703;;;;
44734;BME280;30462;52.446;-1.930;2023-03-21T02:05:18;99495.1875;;;;
44734;BME280;30462;52.446;-1.930;2023-03-21T02:07:19;99500.36719;;;;
44734;BME280;30462;52.446;-1.930;2023-03-21T02:08:18;99493.76953;;;;
44734;BME280;30462;52.446;-1.930;2023-03-21T02:09:19;99497.36719;;;;
44734;BME280;30462;52.446;-1.930;2023-03-21T02:10:18;99497.3125;;;;
44734;BME280;30462;52.446;-1.930;2023-03-21T02:11:18;99495.32813;;;;
44734;BME280;30462;52.446;-1.930;2023-03-21T02:12:18;99491.45313;;;;
44734;BME280;30462;52.446;-1.930;2023-03-21T02:13:18;99495;;;;
44734;BME280;30462;52.446;-1.930;2023-03-21T02:14:22;99485.94141;;;;
44734;BME280;30462;52.446;-1.930;2023-03-21T02:15:18;99482.77734;;;;
44734;BME280;30462;52.446;-1.930;2023-03-21T02:16:20;99483.99609;;;;
44734;BME280;30462;52.446;-1.930;2023-03-21T02:17:24;99478.79297;;;;
44734;BME280;30462;52.446;-1.930;2023-03-21T02:18:20;99479.94141;;;;
44734;BME280;30462;52.446;-1.930;2023-03-21T02:27:18;99469.46484;;;;
44734;BME280;30462;52.446;-1.930;2023-03-21T02:28:21;99467.51953;;;;
44734;BME280;30462;52.446;-1.930;2023-03-21T02:32:20;99459.71484;;;;
44734;BME280;30462;52.446;-1.930;2023-03-21T02:35:25;99453.4375;;;;
44734;BME280;30462;52.446;-1.930;2023-03-21T02:37:20;99454.45313;;;;
44734;BME280;30462;52.446;-1.930;2023-03-21T02:38:19;99453.08984;;;;
44734;BME280;30462;52.446;-1.930;2023-03-21T02:39:19;99451.10938;;;;
44734;BME280;30462;52.446;-1.930;2023-03-21T02:40:22;99449.125;;;;
44734;BME280;30462;52.446;-1.930;2023-03-21T02:41:20;99451.82031;;;;
44734;BME280;30462;52.446;-1.930;2023-03-21T02:42:22;99448.38281;;;;
44734;BME280;30462;52.446;-1.930;2023-03-21T02:43:21;99448.27344;;;;
44734;BME280;30462;52.446;-1.930;2023-03-21T02:44:18;99442.43359;;;;
44734;BME280;30462;52.446;-1.930;2023-03-21T02:45:19;99446.34375;;;;
44734;BME280;30462;52.446;-1.930;2023-03-21T02:46:19;99440.39453;;;;
44734;BME280;30462;52.446;-1.930;2023-03-21T02:47:19;99440.61328;;;;
44734;BME280;30462;52.446;-1.930;2023-03-21T02:48:20;99441.69141;;;;
44734;BME280;30462;52.446;-1.930;2023-03-21T02:49:20;99442.32422;;;;
44734;BME280;30462;52.446;-1.930;2023-03-21T02:50:20;99439.14063;;;;
44734;BME280;30462;52.446;-1.930;2023-03-21T02:51:19;99435.375;;;;
44734;BME280;30462;52.446;-1.930;2023-03-21T02:52:19;99436.19141;;;;
44734;BME280;30462;52.446;-1.930;2023-03-21T02:53:19;99435.73438;;;;
44734;BME280;30462;52.446;-1.930;2023-03-21T02:54:19;99433.98828;;;;
44734;BME280;30462;52.446;-1.930;2023-03-21T02:55:19;99428.93359;;;;
44734;BME280;30462;52.446;-1.930;2023-03-21T02:56:18;99422.16797;;;;
44734;BME280;30462;52.446;-1.930;2023-03-21T02:57:18;99429.51172;;;;
44734;BME280;30462;52.446;-1.930;2023-03-21T02:58:19;99423.47656;;;;
44734;BME280;30462;52.446;-1.930;2023-03-21T02:59:18;99419.92969;;;;
44734;BME280;30462;52.446;-1.930;2023-03-21T03:00:19;99412.50781;;;;
44734;BME280;30462;52.446;-1.930;2023-03-21T03:01:18;99413.35156;;;;
44734;BME280;30462;52.446;-1.930;2023-03-21T03:02:20;99415.5;;;;
44734;BME280;30462;52.446;-1.930;2023-03-21T03:03:18;99409.92969;;;;
44734;BME280;30462;52.446;-1.930;2023-03-21T03:04:18;99409.25391;;;;
44734;BME280;30462;52.446;-1.930;2023-03-21T03:05:22;99414.16797;;;;
44734;BME280;30462;52.446;-1.930;2023-03-21T03:06:18;99414.11328;;;;
44734;BME280;30462;52.446;-1.930;2023-03-21T03:07:22;99413.94922;;;;
44734;BME280;30462;52.446;-1.930;2023-03-21T03:09:23;99419.89844;;;;
44734;BME280;30462;52.446;-1.930;2023-03-21T03:10:22;99410.70703;;;;
44734;BME280;30462;52.446;-1.930;2023-03-21T03:12:20;99411.90625;;;;
44734;BME280;30462;52.446;-1.930;2023-03-21T03:13:23;99408.35938;;;;
44734;BME280;30462;52.446;-1.930;2023-03-21T03:15:20;99405.65234;;;;
44734;BME280;30462;52.446;-1.930;2023-03-21T03:16:22;99402.87109;;;;
44734;BME280;30462;52.446;-1.930;2023-03-21T03:17:22;99403.875;;;;
44734;BME280;30462;52.446;-1.930;2023-03-21T03:18:19;99405.98047;;;;
44734;BME280;30462;52.446;-1.930;2023-03-21T03:19:20;99401.73438;;;;
44734;BME280;30462;52.446;-1.930;2023-03-21T03:21:19;99407.46484;;;;
44734;BME280;30462;52.446;-1.930;2023-03-21T03:22:19;99406.97266;;;;
44734;BME280;30462;52.446;-1.930;2023-03-21T03:24:21;99403.28516;;;;
44734;BME280;30462;52.446;-1.930;2023-03-21T03:25:19;99405.11719;;;;
44734;BME280;30462;52.446;-1.930;2023-03-21T03:26:18;99398.75781;;;;
44734;BME280;30462;52.446;-1.930;2023-03-21T03:27:18;99396.11719;;;;
44734;BME280;30462;52.446;-1.930;2023-03-21T03:28:20;99400.79688;;;;
44734;BME280;30462;52.446;-1.930;2023-03-21T03:29:18;99396.37891;;;;
44734;BME280;30462;52.446;-1.930;2023-03-21T03:30:18;99396.90234;;;;
44734;BME280;30462;52.446;-1.930;2023-03-21T03:31:19;99400.23828;;;;
44734;BME280;30462;52.446;-1.930;2023-03-21T03:32:20;99404.41406;;;;
44734;BME280;30462;52.446;-1.930;2023-03-21T03:33:18;99408.375;;;;
44734;BME280;30462;52.446;-1.930;2023-03-21T03:34:18;99404.22266;;;;
44734;BME280;30462;52.446;-1.930;2023-03-21T03:35:18;99404.57813;;;;
44734;BME280;30462;52.446;-1.930;2023-03-21T03:36:18;99403.70313;;;;
44734;BME280;30462;52.446;-1.930;2023-03-21T03:37:19;99402.97266;;;;
44734;BME280;30462;52.446;-1.930;2023-03-21T03:38:18;99397.83984;;;;
44734;BME280;30462;52.446;-1.930;2023-03-21T03:39:18;99398.37891;;;;
44734;BME280;30462;52.446;-1.930;2023-03-21T03:40:19;99395.24219;;;;
44734;BME280;30462;52.446;-1.930;2023-03-21T03:41:20;99391.69141;;;;
44734;BME280;30462;52.446;-1.930;2023-03-21T03:42:18;99396.14453;;;;
44734;BME280;30462;52.446;-1.930;2023-03-21T03:43:20;99395.10547;;;;
44734;BME280;30462;52.446;-1.930;2023-03-21T03:44:18;99400.97656;;;;
44734;BME280;30462;52.446;-1.930;2023-03-21T03:45:19;99400.23438;;;;
44734;BME280;30462;52.446;-1.930;2023-03-21T03:46:18;99401.95703;;;;
44734;BME280;30462;52.446;-1.930;2023-03-21T03:47:19;99405.46875;;;;
44734;BME280;30462;52.446;-1.930;2023-03-21T03:48:21;99400.67578;;;;
44734;BME280;30462;52.446;-1.930;2023-03-21T03:49:19;99405.41406;;;;
44734;BME280;30462;52.446;-1.930;2023-03-21T03:50:19;99400.35938;;;;
44734;BME280;30462;52.446;-1.930;2023-03-21T03:51:19;99409.125;;;;
44734;BME280;30462;52.446;-1.930;2023-03-21T03:52:19;99399.94922;;;;
44734;BME280;30462;52.446;-1.930;2023-03-21T03:53:19;99397.08594;;;;
44734;BME280;30462;52.446;-1.930;2023-03-21T03:54:20;99380.55469;;;;
44734;BME280;30462;52.446;-1.930;2023-03-21T03:55:17;99385.94922;;;;
44734;BME280;30462;52.446;-1.930;2023-03-21T03:56:18;99382.97656;;;;
44734;BME280;30462;52.446;-1.930;2023-03-21T03:57:18;99379.83594;;;;
44734;BME280;30462;52.446;-1.930;2023-03-21T03:58:19;99380.46094;;;;
44734;BME280;30462;52.446;-1.930;2023-03-21T03:59:18;99382.39063;;;;
44734;BME280;30462;52.446;-1.930;2023-03-21T04:00:18;99375.05859;;;;
44734;BME280;30462;52.446;-1.930;2023-03-21T04:01:18;99379.64063;;;;
44734;BME280;30462;52.446;-1.930;2023-03-21T04:02:18;99376.91406;;;;
44734;BME280;30462;52.446;-1.930;2023-03-21T04:03:18;99372.52344;;;;
44734;BME280;30462;52.446;-1.930;2023-03-21T04:04:18;99377.10938;;;;
44734;BME280;30462;52.446;-1.930;2023-03-21T04:05:18;99374.32422;;;;
44734;BME280;30462;52.446;-1.930;2023-03-21T04:06:18;99371.92188;;;;
44734;BME280;30462;52.446;-1.930;2023-03-21T04:07:18;99372.3125;;;;
44734;BME280;30462;52.446;-1.930;2023-03-21T04:08:18;99368.14453;;;;
44734;BME280;30462;52.446;-1.930;2023-03-21T04:09:18;99369.28906;;;;
44734;BME280;30462;52.446;-1.930;2023-03-21T04:10:18;99365.68359;;;;
44734;BME280;30462;52.446;-1.930;2023-03-21T04:11:18;99355.50781;;;;
44734;BME280;30462;52.446;-1.930;2023-03-21T04:12:18;99354.74219;;;;
44734;BME280;30462;52.446;-1.930;2023-03-21T04:13:18;99351.55469;;;;
44734;BME280;30462;52.446;-1.930;2023-03-21T04:14:18;99351.0625;;;;
44734;BME280;30462;52.446;-1.930;2023-03-21T04:15:18;99343.14844;;;;
44734;BME280;30462;52.446;-1.930;2023-03-21T04:16:18;99347.70703;;;;
44734;BME280;30462;52.446;-1.930;2023-03-21T04:17:18;99344.01953;;;;
44734;BME280;30462;52.446;-1.930;2023-03-21T04:18:19;99339.54688;;;;
44734;BME280;30462;52.446;-1.930;2023-03-21T04:19:18;99338.23438;;;;
44734;BME280;30462;52.446;-1.930;2023-03-21T04:20:18;99339.68359;;;;
44734;BME280;30462;52.446;-1.930;2023-03-21T04:21:18;99340.75;;;;
44734;BME280;30462;52.446;-1.930;2023-03-21T04:22:18;99339.21875;;;;
44734;BME280;30462;52.446;-1.930;2023-03-21T04:23:18;99341.45703;;;;
44734;BME280;30462;52.446;-1.930;2023-03-21T04:24:18;99334.65625;;;;
44734;BME280;30462;52.446;-1.930;2023-03-21T04:25:18;99337.00781;;;;
44734;BME280;30462;52.446;-1.930;2023-03-21T04:26:18;99332.23438;;;;
44734;BME280;30462;52.446;-1.930;2023-03-21T04:27:18;99333.43359;;;;
44734;BME280;30462;52.446;-1.930;2023-03-21T04:28:18;99332.25781;;;;
44734;BME280;30462;52.446;-1.930;2023-03-21T04:29:18;99334.65625;;;;
44734;BME280;30462;52.446;-1.930;2023-03-21T04:30:18;99330.59766;;;;
44734;BME280;30462;52.446;-1.930;2023-03-21T04:31:18;99334.9375;;;;
44734;BME280;30462;52.446;-1.930;2023-03-21T04:32:18;99337.39063;;;;
44734;BME280;30462;52.446;-1.930;2023-03-21T04:33:18;99327.97266;;;;
44734;BME280;30462;52.446;-1.930;2023-03-21T04:34:18;99331.38281;;;;
44734;BME280;30462;52.446;-1.930;2023-03-21T04:35:18;99320.63281;;;;
44734;BME280;30462;52.446;-1.930;2023-03-21T04:36:18;99326.61328;;;;
44734;BME280;30462;52.446;-1.930;2023-03-21T04:37:18;99326.26172;;;;
44734;BME280;30462;52.446;-1.930;2023-03-21T04:38:18;99324.05078;;;;
44734;BME280;30462;52.446;-1.930;2023-03-21T04:39:18;99321.10547;;;;
44734;BME280;30462;52.446;-1.930;2023-03-21T04:40:18;99322.11328;;;;
44734;BME280;30462;52.446;-1.930;2023-03-21T04:41:18;99327.45313;;;;
44734;BME280;30462;52.446;-1.930;2023-03-21T04:42:18;99316.02734;;;;
44734;BME280;30462;52.446;-1.930;2023-03-21T04:43:18;99314.76953;;;;
44734;BME280;30462;52.446;-1.930;2023-03-21T04:44:18;99317.85156;;;;
44734;BME280;30462;52.446;-1.930;2023-03-21T04:45:18;99318.69922;;;;
44734;BME280;30462;52.446;-1.930;2023-03-21T04:46:18;99315.00781;;;;
44734;BME280;30462;52.446;-1.930;2023-03-21T04:47:18;99316.8125;;;;
44734;BME280;30462;52.446;-1.930;2023-03-21T04:48:18;99315.53125;;;;
44734;BME280;30462;52.446;-1.930;2023-03-21T04:49:18;99314.79688;;;;
44734;BME280;30462;52.446;-1.930;2023-03-21T04:50:18;99313.37891;;;;
44734;BME280;30462;52.446;-1.930;2023-03-21T04:51:18;99312.5625;;;;
44734;BME280;30462;52.446;-1.930;2023-03-21T04:52:18;99310.46094;;;;
44734;BME280;30462;52.446;-1.930;2023-03-21T04:53:18;99308.47266;;;;
44734;BME280;30462;52.446;-1.930;2023-03-21T04:54:18;99310.94922;;;;
44734;BME280;30462;52.446;-1.930;2023-03-21T04:55:18;99308.82422;;;;
44734;BME280;30462;52.446;-1.930;2023-03-21T04:56:18;99308.98438;;;;
44734;BME280;30462;52.446;-1.930;2023-03-21T04:57:18;99306.53516;;;;
44734;BME280;30462;52.446;-1.930;2023-03-21T04:58:18;99307.94922;;;;
44734;BME280;30462;52.446;-1.930;2023-03-21T04:59:18;99303.03516;;;;
44734;BME280;30462;52.446;-1.930;2023-03-21T05:00:18;99303.5;;;;
44734;BME280;30462;52.446;-1.930;2023-03-21T05:01:18;99299.10938;;;;
44734;BME280;30462;52.446;-1.930;2023-03-21T05:02:18;99301.01953;;;;
44734;BME280;30462;52.446;-1.930;2023-03-21T05:03:18;99299.26953;;;;
44734;BME280;30462;52.446;-1.930;2023-03-21T05:04:19;99294.49609;;;;
44734;BME280;30462;52.446;-1.930;2023-03-21T05:05:18;99297.55469;;;;
44734;BME280;30462;52.446;-1.930;2023-03-21T05:06:18;99290.08594;;;;
44734;BME280;30462;52.446;-1.930;2023-03-21T05:07:18;99293.54297;;;;
44734;BME280;30462;52.446;-1.930;2023-03-21T05:08:18;99294.25781;;;;
44734;BME280;30462;52.446;-1.930;2023-03-21T05:09:18;99293.78516;;;;
44734;BME280;30462;52.446;-1.930;2023-03-21T05:10:18;99289.90625;;;;
44734;BME280;30462;52.446;-1.930;2023-03-21T05:11:18;99286.74219;;;;
44734;BME280;30462;52.446;-1.930;2023-03-21T05:12:18;99291.02344;;;;
44734;BME280;30462;52.446;-1.930;2023-03-21T05:13:18;99287.55469;;;;
44734;BME280;30462;52.446;-1.930;2023-03-21T05:14:19;99288.75391;;;;
44734;BME280;30462;52.446;-1.930;2023-03-21T05:15:18;99287.03906;;;;
44734;BME280;30462;52.446;-1.930;2023-03-21T05:16:18;99282.05078;;;;
44734;BME280;30462;52.446;-1.930;2023-03-21T05:17:18;99284.87891;;;;
44734;BME280;30462;52.446;-1.930;2023-03-21T05:18:17;99285.73047;;;;
44734;BME280;30462;52.446;-1.930;2023-03-21T05:19:18;99280.92969;;;;
44734;BME280;30462;52.446;-1.930;2023-03-21T05:20:18;99283.19531;;;;
44734;BME280;30462;52.446;-1.930;2023-03-21T05:21:18;99283.99219;;;;
44734;BME280;30462;52.446;-1.930;2023-03-21T05:22:18;99273.59375;;;;
44734;BME280;30462;52.446;-1.930;2023-03-21T05:23:18;99267.80469;;;;
44734;BME280;30462;52.446;-1.930;2023-03-21T05:24:18;99268.625;;;;
44734;BME280;30462;52.446;-1.930;2023-03-21T05:25:18;99266.79297;;;;
44734;BME280;30462;52.446;-1.930;2023-03-21T05:26:18;99266.32813;;;;
44734;BME280;30462;52.446;-1.930;2023-03-21T05:27:18;99257.50391;;;;
44734;BME280;30462;52.446;-1.930;2023-03-21T05:28:18;99257.28906;;;;
44734;BME280;30462;52.446;-1.930;2023-03-21T05:29:18;99257.83203;;;;
44734;BME280;30462;52.446;-1.930;2023-03-21T05:30:18;99258.37891;;;;
44734;BME280;30462;52.446;-1.930;2023-03-21T05:31:18;99256.65234;;;;
44734;BME280;30462;52.446;-1.930;2023-03-21T05:32:18;99256.91797;;;;
44734;BME280;30462;52.446;-1.930;2023-03-21T05:33:18;99250.86328;;;;
44734;BME280;30462;52.446;-1.930;2023-03-21T05:34:18;99253.17578;;;;
44734;BME280;30462;52.446;-1.930;2023-03-21T05:35:18;99249.70313;;;;
44734;BME280;30462;52.446;-1.930;2023-03-21T05:36:18;99247.05859;;;;
44734;BME280;30462;52.446;-1.930;2023-03-21T05:37:18;99250.36328;;;;
44734;BME280;30462;52.446;-1.930;2023-03-21T05:38:19;99250.78125;;;;
44734;BME280;30462;52.446;-1.930;2023-03-21T05:39:18;99242.82031;;;;
44734;BME280;30462;52.446;-1.930;2023-03-21T05:40:19;99250.75781;;;;
44734;BME280;30462;52.446;-1.930;2023-03-21T05:41:18;99254.68359;;;;
44734;BME280;30462;52.446;-1.930;2023-03-21T05:42:18;99254.51172;;;;
44734;BME280;30462;52.446;-1.930;2023-03-21T05:43:18;99257.92578;;;;
44734;BME280;30462;52.446;-1.930;2023-03-21T05:44:18;99253.5;;;;
44734;BME280;30462;52.446;-1.930;2023-03-21T05:45:18;99260.26563;;;;
44734;BME280;30462;52.446;-1.930;2023-03-21T05:46:18;99256.92188;;;;
44734;BME280;30462;52.446;-1.930;2023-03-21T05:47:18;99256.36719;;;;
44734;BME280;30462;52.446;-1.930;2023-03-21T05:48:18;99263.41797;;;;
44734;BME280;30462;52.446;-1.930;2023-03-21T05:49:18;99258.43359;;;;
44734;BME280;30462;52.446;-1.930;2023-03-21T05:50:18;99257.08594;;;;
44734;BME280;30462;52.446;-1.930;2023-03-21T05:51:18;99256.87109;;;;
44734;BME280;30462;52.446;-1.930;2023-03-21T05:52:18;99260.08984;;;;
44734;BME280;30462;52.446;-1.930;2023-03-21T05:53:18;99255.69531;;;;
44734;BME280;30462;52.446;-1.930;2023-03-21T05:54:18;99253.45703;;;;
44734;BME280;30462;52.446;-1.930;2023-03-21T05:55:18;99251.82031;;;;
44734;BME280;30462;52.446;-1.930;2023-03-21T05:56:18;99252.33594;;;;
44734;BME280;30462;52.446;-1.930;2023-03-21T05:57:18;99253.94141;;;;
44734;BME280;30462;52.446;-1.930;2023-03-21T05:58:18;99256.07031;;;;
44734;BME280;30462;52.446;-1.930;2023-03-21T05:59:18;99251.35156;;;;
44734;BME280;30462;52.446;-1.930;2023-03-21T06:00:18;99252.79297;;;;
44734;BME280;30462;52.446;-1.930;2023-03-21T06:01:18;99250.58203;;;;
44734;BME280;30462;52.446;-1.930;2023-03-21T06:02:18;99249.97656;;;;
44734;BME280;30462;52.446;-1.930;2023-03-21T06:03:18;99243.72266;;;;
44734;BME280;30462;52.446;-1.930;2023-03-21T06:04:18;99241.45313;;;;
44734;BME280;30462;52.446;-1.930;2023-03-21T06:05:18;99240.30078;;;;
44734;BME280;30462;52.446;-1.930;2023-03-21T06:06:18;99244.48047;;;;
44734;BME280;30462;52.446;-1.930;2023-03-21T06:07:18;99250.47656;;;;
44734;BME280;30462;52.446;-1.930;2023-03-21T06:08:18;99248.37891;;;;